Terminal Aerodrome Forecast
Issued by NWS Buffalo, NY

Current Version | Previous Version | Text Only | Print | Product List | Glossary On
Versions: 1 2 3 4 5 6 7 8 9 10 11 12 13 14 15 16 17 18 19 20 21 22 23 24 25 26 27 28 29 30 31
000
FTUS41 KBUF 211737
TAFART
TAF
KART 211737Z 2118/2218 06009KT P6SM FEW250
     FM220000 03005KT P6SM SKC
     FM220800 09004KT 2SM BR SKC
     FM221300 VRB03KT P6SM SKC
     FM221400 04004KT P6SM SKC=

USA.gov is the U.S. government's official web portal to all federal, state and local government web resources and services.